createdAt,value
2023-03-31T17:33:04.186Z,97.10
2023-03-31T17:35:32.197Z,97.30
2023-03-31T17:38:00.149Z,97.10
2023-03-31T17:40:28.200Z,97.20
2023-03-31T17:42:56.199Z,97.40
2023-03-31T17:45:25.246Z,97.20
2023-03-31T17:47:53.198Z,97.40
2023-03-31T17:50:22.793Z,97.20
2023-03-31T17:52:51.582Z,97.30
2023-03-31T17:55:19.941Z,97.30
2023-03-31T17:57:47.843Z,97.30
2023-03-31T18:00:16.677Z,97.20
2023-03-31T18:02:44.748Z,97.30
2023-03-31T18:05:12.811Z,97.30
2023-03-31T18:07:42.353Z,97.40
2023-03-31T18:10:11.229Z,97.40
2023-03-31T18:12:39.372Z,97.30
2023-03-31T18:15:09.647Z,97.40
2023-03-31T18:17:37.728Z,97.40
2023-03-31T18:20:06.562Z,97.50
2023-03-31T18:22:34.420Z,97.50
2023-03-31T18:25:03.894Z,97.50
2023-03-31T18:27:31.744Z,97.60
2023-03-31T18:29:59.653Z,97.50
2023-03-31T18:32:27.642Z,97.70
2023-03-31T18:34:55.930Z,97.40
2023-03-31T18:37:23.847Z,97.40
2023-03-31T18:39:51.713Z,97.10
2023-03-31T18:42:24.981Z,97.40
2023-03-31T18:44:53.219Z,97.30
2023-03-31T18:47:21.552Z,97.40
2023-03-31T18:49:53.666Z,97.60
2023-03-31T18:52:22.072Z,97.60
2023-03-31T18:54:51.275Z,97.60
2023-03-31T18:57:21.049Z,97.60
2023-03-31T18:59:48.960Z,97.60
2023-03-31T19:02:18.087Z,97.50
2023-03-31T19:04:46.755Z,97.80
2023-03-31T19:07:15.015Z,97.70
2023-03-31T19:09:42.902Z,97.60
2023-03-31T19:12:12.010Z,97.40
2023-03-31T19:14:41.503Z,97.40
2023-03-31T19:17:09.747Z,97.40
2023-03-31T19:19:37.854Z,97.40
2023-03-31T19:22:05.799Z,97.50
2023-03-31T19:24:33.830Z,97.60
2023-03-31T19:27:01.712Z,97.50
2023-03-31T19:29:30.351Z,97.40
2023-03-31T19:31:59.688Z,97.40
2023-03-31T19:34:27.715Z,97.30
2023-03-31T19:36:55.710Z,97.30
2023-03-31T19:39:25.340Z,97.30
2023-03-31T19:41:53.224Z,97.30
2023-03-31T19:44:21.080Z,97.30
2023-03-31T19:46:48.991Z,97.20
2023-03-31T19:49:18.791Z,97.30
2023-03-31T19:51:46.730Z,97.30
2023-03-31T19:54:14.999Z,97.20
2023-03-31T19:56:43.112Z,97.30
2023-03-31T19:59:11.054Z,97.30
2023-03-31T20:01:39.035Z,97.40
2023-03-31T20:04:07.081Z,97.40
2023-03-31T20:06:37.032Z,97.40
2023-03-31T20:09:06.240Z,97.30
2023-03-31T20:11:34.513Z,97.30
2023-03-31T20:14:03.334Z,97.40
2023-03-31T20:16:32.885Z,97.50
2023-03-31T20:19:04.157Z,97.40
2023-03-31T20:21:34.419Z,97.50
2023-03-31T20:24:04.359Z,97.50
2023-03-31T20:26:33.939Z,97.40
2023-03-31T20:29:03.940Z,97.40
2023-03-31T20:31:36.304Z,97.40
2023-03-31T20:34:05.824Z,97.50
2023-03-31T20:36:33.780Z,97.40
2023-03-31T20:39:05.580Z,97.40
2023-03-31T20:41:34.774Z,97.70
2023-03-31T20:44:02.705Z,97.40
2023-03-31T20:46:30.704Z,97.30
2023-03-31T20:48:59.397Z,97.30
2023-03-31T20:51:29.632Z,97.40
2023-03-31T20:53:58.709Z,97.50
2023-03-31T20:56:29.326Z,97.40
2023-03-31T20:59:00.200Z,97.50
2023-03-31T21:01:30.947Z,97.40
2023-03-31T21:04:00.750Z,97.50
2023-03-31T21:06:31.002Z,97.40
2023-03-31T21:08:59.272Z,97.40
2023-03-31T21:11:28.596Z,97.50
2023-03-31T21:13:56.432Z,97.60
2023-03-31T21:16:25.370Z,97.70
2023-03-31T21:18:54.845Z,97.50
2023-03-31T21:21:24.876Z,97.60
2023-03-31T21:23:53.039Z,97.50
2023-03-31T21:26:21.842Z,97.70
2023-03-31T21:28:54.068Z,97.80
2023-03-31T21:31:24.206Z,97.80
2023-03-31T21:33:53.333Z,97.70
2023-03-31T21:36:23.157Z,97.60
2023-03-31T21:38:53.002Z,97.80
2023-03-31T21:41:23.995Z,97.80
2023-03-31T21:43:54.484Z,97.80
2023-03-31T21:46:25.944Z,97.80
2023-03-31T21:48:54.418Z,97.80
2023-03-31T21:51:23.130Z,97.90
2023-03-31T21:53:53.070Z,97.80
2023-03-31T21:56:20.966Z,97.80
2023-03-31T21:58:48.853Z,97.80
2023-03-31T22:01:18.439Z,98.00
2023-03-31T22:03:47.017Z,98.20
2023-03-31T22:06:15.499Z,98.20
2023-03-31T22:08:43.387Z,98.00
2023-03-31T22:11:13.237Z,98.10
2023-03-31T22:13:41.496Z,98.10
2023-03-31T22:16:17.969Z,98.10
2023-03-31T22:18:46.971Z,98.00
2023-03-31T22:21:16.967Z,98.20
2023-03-31T22:23:44.857Z,98.20
2023-03-31T22:26:12.830Z,98.20
2023-03-31T22:28:40.767Z,98.20
2023-03-31T22:31:09.518Z,98.10
2023-03-31T22:33:38.761Z,98.10
2023-03-31T22:36:08.428Z,98.10
2023-03-31T22:38:36.416Z,98.10
2023-03-31T22:41:04.329Z,98.20
2023-03-31T22:43:33.489Z,98.20
2023-03-31T22:46:04.017Z,98.20
2023-03-31T22:48:31.898Z,98.20
2023-03-31T22:51:04.641Z,98.20
2023-03-31T22:53:32.984Z,98.20
